Time;durP1;ratioP1;P1;durP2;ratioP2;P2;SDS_P1;SDS_P2;PMS_P1;PMS_P2;Temp;Humidity;BMP_temperature;BMP_pressure;BME280_temperature;BME280_humidity;BME280_pressure;Samples;Min_cycle;Max_cycle;Signal;HPM_P1;HPM_P2
2023/07/07 00:01:48;;;;;;;7.53;3.35;;;14.20;99.90;;;;;;5070588;28;20020;-71
2023/07/07 00:04:14;;;;;;;9.15;3.88;;;14.20;99.90;;;;;;5070600;28;20483;-71
2023/07/07 00:06:39;;;;;;;6.63;4.10;;;14.20;99.90;;;;;;5070673;28;20458;-71
2023/07/07 00:09:05;;;;;;;12.68;4.28;;;14.20;99.90;;;;;;5070265;28;20114;-71
2023/07/07 00:11:30;;;;;;;8.23;4.03;;;14.20;99.90;;;;;;5070482;28;20032;-71
2023/07/07 00:13:57;;;;;;;9.68;4.10;;;14.20;99.90;;;;;;5067982;28;20016;-71
2023/07/07 00:16:27;;;;;;;8.68;3.72;;;14.20;99.90;;;;;;5051008;28;20021;-71
2023/07/07 00:18:58;;;;;;;8.40;4.18;;;14.10;99.90;;;;;;5068747;28;20028;-72
2023/07/07 00:21:24;;;;;;;7.72;3.92;;;14.10;99.90;;;;;;5075161;28;20016;-71
2023/07/07 00:23:56;;;;;;;11.32;4.32;;;14.10;99.90;;;;;;5074150;28;20056;-71
2023/07/07 00:26:23;;;;;;;8.05;4.57;;;14.10;99.90;;;;;;5074226;28;20052;-71
2023/07/07 00:28:49;;;;;;;13.55;4.53;;;14.10;99.90;;;;;;5073932;28;20032;-72
2023/07/07 00:31:16;;;;;;;15.98;4.35;;;14.10;99.90;;;;;;5074785;28;20044;-71
2023/07/07 00:33:42;;;;;;;9.18;5.05;;;14.10;99.90;;;;;;5073971;28;20492;-71
2023/07/07 00:36:08;;;;;;;7.78;4.85;;;14.10;99.90;;;;;;5073842;28;20028;-71
2023/07/07 00:38:33;;;;;;;6.30;4.03;;;14.00;99.90;;;;;;5073974;28;20028;-71
2023/07/07 00:41:00;;;;;;;8.05;5.18;;;14.00;99.90;;;;;;5073786;28;20059;-71
2023/07/07 00:43:26;;;;;;;9.60;5.47;;;14.00;99.90;;;;;;5073834;28;20063;-71
2023/07/07 00:45:52;;;;;;;7.35;4.25;;;14.00;99.90;;;;;;5073645;28;20458;-71
2023/07/07 00:48:24;;;;;;;13.23;6.25;;;14.00;99.90;;;;;;5073883;28;20436;-71
2023/07/07 00:51:05;;;;;;;9.63;4.95;;;14.00;99.90;;;;;;5073430;28;20514;-71
2023/07/07 00:53:31;;;;;;;10.27;5.35;;;13.90;99.90;;;;;;5073705;28;20069;-71
2023/07/07 00:56:01;;;;;;;13.10;5.00;;;13.90;99.90;;;;;;5073714;28;20104;-71
2023/07/07 00:58:30;;;;;;;8.05;4.15;;;13.90;99.90;;;;;;5073708;28;20024;-71
2023/07/07 01:01:06;;;;;;;9.82;5.65;;;13.90;99.90;;;;;;5073084;28;20044;-71
2023/07/07 01:03:39;;;;;;;8.77;4.93;;;13.90;99.90;;;;;;5073916;28;20422;-71
2023/07/07 01:06:07;;;;;;;10.20;4.68;;;13.90;99.90;;;;;;5073257;28;20048;-71
2023/07/07 01:08:38;;;;;;;8.52;4.88;;;13.90;99.90;;;;;;5073636;28;20033;-71
2023/07/07 01:11:03;;;;;;;16.48;5.68;;;13.90;99.90;;;;;;5073147;28;20455;-71
2023/07/07 01:13:30;;;;;;;10.75;5.57;;;13.80;99.90;;;;;;5073029;28;20098;-71
2023/07/07 01:16:22;;;;;;;6.28;4.63;;;13.90;99.90;;;;;;5073208;28;20020;-71
2023/07/07 01:19:05;;;;;;;10.43;4.80;;;13.80;99.90;;;;;;5073611;28;20059;-71
2023/07/07 01:21:43;;;;;;;11.75;5.70;;;13.80;99.90;;;;;;5053542;28;20082;-71
2023/07/07 01:24:30;;;;;;;12.52;4.93;;;13.70;99.90;;;;;;5053361;28;20036;-71
2023/07/07 01:27:13;;;;;;;10.02;5.43;;;13.70;99.90;;;;;;5064819;28;20124;-71
2023/07/07 01:30:05;;;;;;;6.68;4.47;;;13.70;99.90;;;;;;5071632;28;20482;-71
2023/07/07 01:32:31;;;;;;;8.38;4.90;;;13.60;99.90;;;;;;5073315;28;20045;-71
2023/07/07 01:34:59;;;;;;;8.73;5.07;;;13.50;99.90;;;;;;5072918;28;20055;-72
2023/07/07 01:37:24;;;;;;;12.35;6.15;;;13.50;99.90;;;;;;5073135;28;20130;-71
2023/07/07 01:39:53;;;;;;;8.77;5.32;;;13.40;99.90;;;;;;5072930;28;20494;-71
2023/07/07 01:42:46;;;;;;;9.45;6.05;;;13.40;99.90;;;;;;5073708;28;20127;-71
2023/07/07 01:45:34;;;;;;;9.32;5.70;;;13.40;99.90;;;;;;5072724;28;20095;-71
2023/07/07 01:48:11;;;;;;;10.07;5.85;;;13.40;99.90;;;;;;5071394;28;20021;-71
2023/07/07 01:50:39;;;;;;;8.73;5.70;;;13.30;99.90;;;;;;5072927;28;20046;-71
2023/07/07 01:53:09;;;;;;;9.20;5.75;;;13.30;99.90;;;;;;5072429;28;20035;-71
2023/07/07 01:55:40;;;;;;;10.30;6.22;;;13.30;99.90;;;;;;5072729;28;20108;-71
2023/07/07 01:58:09;;;;;;;12.82;7.35;;;13.20;99.90;;;;;;5072366;28;20039;-71
2023/07/07 02:00:35;;;;;;;12.43;6.38;;;13.20;99.90;;;;;;5072816;28;20016;-71
2023/07/07 02:03:07;;;;;;;8.48;6.30;;;13.10;99.90;;;;;;5072432;28;20035;-71
2023/07/07 02:05:33;;;;;;;10.88;6.75;;;13.10;99.90;;;;;;5072384;28;20360;-71
2023/07/07 02:07:58;;;;;;;11.50;6.40;;;13.10;99.90;;;;;;5071970;28;20031;-71
2023/07/07 02:10:24;;;;;;;10.80;6.05;;;13.10;99.90;;;;;;5072246;28;20550;-71
2023/07/07 02:12:50;;;;;;;8.65;6.50;;;13.10;99.90;;;;;;5056786;28;20112;-71
2023/07/07 02:15:15;;;;;;;8.23;6.40;;;13.00;99.90;;;;;;5072326;28;20486;-71
2023/07/07 02:17:41;;;;;;;11.35;6.70;;;13.00;99.90;;;;;;5072365;28;20040;-71
2023/07/07 02:20:08;;;;;;;8.23;6.15;;;13.00;99.90;;;;;;5071804;28;20367;-71
2023/07/07 02:22:35;;;;;;;10.82;7.05;;;13.00;99.90;;;;;;5071970;28;20024;-71
2023/07/07 02:25:01;;;;;;;10.35;6.60;;;12.90;99.90;;;;;;5071161;28;20047;-71
2023/07/07 02:27:26;;;;;;;13.60;6.90;;;12.90;99.90;;;;;;5072377;28;20382;-71
2023/07/07 02:29:52;;;;;;;11.95;6.15;;;12.80;99.90;;;;;;5070275;28;20032;-71
2023/07/07 02:32:17;;;;;;;9.15;6.82;;;12.80;99.90;;;;;;5071964;28;20068;-71
2023/07/07 02:34:47;;;;;;;14.10;7.25;;;12.80;99.90;;;;;;5072015;28;20028;-71
2023/07/07 02:37:17;;;;;;;10.50;7.00;;;12.70;99.90;;;;;;5071622;28;20392;-71
2023/07/07 02:39:44;;;;;;;10.05;6.88;;;12.70;99.90;;;;;;5071691;28;20036;-71
2023/07/07 02:42:10;;;;;;;12.57;6.70;;;12.70;99.90;;;;;;5071190;28;20108;-71
2023/07/07 02:44:36;;;;;;;10.32;7.55;;;12.70;99.90;;;;;;5071769;28;20501;-71
2023/07/07 02:47:01;;;;;;;10.65;6.43;;;12.70;99.90;;;;;;5071234;28;20024;-71
2023/07/07 02:49:27;;;;;;;8.68;6.13;;;12.60;99.90;;;;;;5071452;28;20020;-71
2023/07/07 02:51:52;;;;;;;9.73;6.03;;;12.50;99.90;;;;;;5070066;28;20115;-70
2023/07/07 02:54:18;;;;;;;9.63;6.93;;;12.50;99.90;;;;;;5071882;28;20029;-71
2023/07/07 02:56:44;;;;;;;12.30;7.88;;;12.50;99.90;;;;;;5071556;28;20390;-71
2023/07/07 02:59:09;;;;;;;10.23;7.32;;;12.50;99.90;;;;;;5070137;28;20017;-71
2023/07/07 03:01:35;;;;;;;12.85;7.78;;;12.40;99.90;;;;;;5080217;28;20055;-71
2023/07/07 03:04:00;;;;;;;11.57;7.45;;;12.40;99.90;;;;;;5075150;28;20107;-71
2023/07/07 03:06:26;;;;;;;15.27;8.25;;;12.30;99.90;;;;;;5071345;28;20516;-71
2023/07/07 03:08:52;;;;;;;13.55;7.13;;;12.30;99.90;;;;;;5071830;28;20538;-71
2023/07/07 03:11:20;;;;;;;10.68;7.32;;;12.30;99.90;;;;;;5058862;28;20029;-71
2023/07/07 03:13:48;;;;;;;10.02;7.00;;;12.30;99.90;;;;;;5063125;28;20021;-71
2023/07/07 03:16:21;;;;;;;13.25;7.78;;;12.30;99.90;;;;;;5071526;28;20035;-71
2023/07/07 03:18:55;;;;;;;10.98;7.13;;;12.30;99.90;;;;;;5069908;28;20095;-71
2023/07/07 03:21:21;;;;;;;11.98;7.72;;;12.20;99.90;;;;;;5069976;28;20082;-71
2023/07/07 03:23:49;;;;;;;10.15;7.47;;;12.20;99.90;;;;;;5071614;28;20025;-71
2023/07/07 03:26:17;;;;;;;12.02;8.15;;;12.20;99.90;;;;;;5071312;28;20051;-71
2023/07/07 03:28:43;;;;;;;12.00;8.00;;;12.20;99.90;;;;;;5069666;28;20082;-71
2023/07/07 03:31:29;;;;;;;12.48;8.02;;;12.10;99.90;;;;;;5070761;28;20494;-71
2023/07/07 03:33:56;;;;;;;11.48;8.02;;;12.10;99.90;;;;;;5071015;28;20024;-71
2023/07/07 03:36:24;;;;;;;12.57;8.00;;;12.10;99.90;;;;;;5071058;28;20523;-71
2023/07/07 03:38:50;;;;;;;14.20;8.55;;;12.10;99.90;;;;;;5070513;28;20051;-71
2023/07/07 03:41:18;;;;;;;16.20;8.90;;;12.10;99.90;;;;;;5071224;28;20060;-71
2023/07/07 03:43:45;;;;;;;18.48;8.40;;;12.00;99.90;;;;;;5069539;28;20048;-71
2023/07/07 03:46:11;;;;;;;15.73;9.45;;;12.00;99.90;;;;;;5070756;28;20099;-71
2023/07/07 03:48:37;;;;;;;12.35;9.18;;;12.00;99.90;;;;;;5071161;28;20024;-71
2023/07/07 03:51:04;;;;;;;12.63;9.00;;;12.00;99.90;;;;;;5070388;28;20441;-71
2023/07/07 03:53:31;;;;;;;11.70;8.68;;;12.00;99.90;;;;;;5071039;28;20119;-71
2023/07/07 03:55:56;;;;;;;14.23;9.07;;;12.00;99.90;;;;;;5070263;28;20121;-71
2023/07/07 03:58:24;;;;;;;9.80;8.10;;;12.00;99.90;;;;;;5071461;28;20048;-73
2023/07/07 04:00:50;;;;;;;10.75;7.93;;;12.00;99.90;;;;;;5083463;28;20031;-71
2023/07/07 04:03:17;;;;;;;11.15;6.72;;;12.00;99.90;;;;;;5076006;28;20107;-72
2023/07/07 04:05:47;;;;;;;13.05;7.80;;;12.00;99.90;;;;;;5077070;28;20112;-71
2023/07/07 04:08:13;;;;;;;10.77;7.03;;;12.00;99.90;;;;;;5071216;28;20360;-71
2023/07/07 04:10:41;;;;;;;10.93;7.57;;;12.00;99.90;;;;;;5051719;28;20025;-71
2023/07/07 04:13:07;;;;;;;10.57;7.40;;;12.00;99.90;;;;;;5056599;28;20090;-71
2023/07/07 04:15:33;;;;;;;9.65;6.80;;;12.10;99.90;;;;;;5070932;28;20133;-71
2023/07/07 04:17:59;;;;;;;9.45;7.30;;;12.10;99.90;;;;;;5070340;28;20029;-71
2023/07/07 04:20:25;;;;;;;10.18;6.63;;;12.10;99.90;;;;;;5070493;28;20104;-71
2023/07/07 04:22:51;;;;;;;10.50;6.57;;;12.10;99.90;;;;;;5070151;28;20025;-71
2023/07/07 04:25:18;;;;;;;10.57;6.82;;;12.20;99.90;;;;;;5070442;28;20040;-71
2023/07/07 04:27:44;;;;;;;10.55;7.20;;;12.20;99.90;;;;;;5070480;28;20017;-71
2023/07/07 04:30:11;;;;;;;11.23;7.47;;;12.30;99.90;;;;;;5070124;28;20099;-71
2023/07/07 04:32:37;;;;;;;9.18;6.28;;;12.30;99.90;;;;;;5070449;28;20094;-71
2023/07/07 04:35:04;;;;;;;9.82;6.97;;;12.40;99.90;;;;;;5070277;28;20025;-71
2023/07/07 04:37:30;;;;;;;11.43;7.38;;;12.50;99.90;;;;;;5070682;28;20047;-72
2023/07/07 04:39:55;;;;;;;10.65;7.45;;;12.50;99.90;;;;;;5069792;28;20024;-71
2023/07/07 04:42:21;;;;;;;12.18;6.40;;;12.60;99.90;;;;;;5070279;28;20029;-71
2023/07/07 04:44:47;;;;;;;10.50;6.40;;;12.70;99.90;;;;;;5070166;28;20028;-71
2023/07/07 04:47:12;;;;;;;11.40;7.30;;;12.80;99.90;;;;;;5070265;28;20055;-71
2023/07/07 04:49:38;;;;;;;15.55;8.27;;;12.80;99.90;;;;;;5070194;28;20074;-71
2023/07/07 04:52:04;;;;;;;9.68;6.72;;;12.90;99.90;;;;;;5069766;28;20486;-71
2023/07/07 04:54:30;;;;;;;12.18;7.28;;;13.00;99.90;;;;;;5069964;28;20025;-71
2023/07/07 04:56:56;;;;;;;11.68;7.13;;;13.10;99.90;;;;;;5068304;28;20016;-71
2023/07/07 04:59:21;;;;;;;10.20;6.85;;;13.20;99.90;;;;;;5069906;28;20493;-69
2023/07/07 05:01:47;;;;;;;9.07;5.53;;;13.50;99.90;;;;;;5069958;28;20103;-69
2023/07/07 05:04:12;;;;;;;16.25;6.07;;;13.90;99.90;;;;;;5071614;28;20082;-70
2023/07/07 05:06:39;;;;;;;13.07;4.95;;;14.40;99.90;;;;;;5074083;28;20024;-70
2023/07/07 05:09:05;;;;;;;8.50;4.07;;;14.90;99.90;;;;;;5072292;28;20478;-69
2023/07/07 05:11:33;;;;;;;7.63;4.95;;;15.40;99.90;;;;;;5073448;28;20044;-69
2023/07/07 05:13:59;;;;;;;8.70;4.20;;;15.80;99.90;;;;;;5072761;28;20021;-70
2023/07/07 05:16:30;;;;;;;8.02;4.15;;;16.10;99.90;;;;;;5073471;28;20031;-70
2023/07/07 05:18:56;;;;;;;6.57;3.60;;;16.50;99.90;;;;;;5073128;28;20043;-69
2023/07/07 05:21:27;;;;;;;11.35;4.72;;;16.90;99.90;;;;;;5073373;28;20438;-69
2023/07/07 05:23:53;;;;;;;4.90;2.97;;;17.20;99.90;;;;;;5072993;28;20566;-69
2023/07/07 05:26:27;;;;;;;10.32;3.95;;;17.50;99.90;;;;;;5072849;28;20056;-70
2023/07/07 05:28:54;;;;;;;4.47;2.88;;;17.80;99.90;;;;;;5072866;28;20063;-70
2023/07/07 05:31:20;;;;;;;5.00;2.85;;;18.10;99.90;;;;;;5072963;28;20043;-70
2023/07/07 05:33:46;;;;;;;6.47;3.67;;;18.40;99.90;;;;;;5073111;28;20402;-70
2023/07/07 05:36:12;;;;;;;8.25;3.67;;;18.70;99.90;;;;;;5072234;28;20032;-70
2023/07/07 05:38:39;;;;;;;9.23;4.82;;;18.90;99.90;;;;;;5071863;28;20070;-70
2023/07/07 05:41:05;;;;;;;9.25;3.55;;;19.00;99.90;;;;;;5072296;28;20021;-70
2023/07/07 05:43:31;;;;;;;7.93;3.05;;;19.30;99.90;;;;;;5073038;28;20032;-70
2023/07/07 05:46:02;;;;;;;5.75;3.42;;;19.40;99.90;;;;;;5072505;28;20020;-70
2023/07/07 05:48:28;;;;;;;7.85;3.15;;;19.60;99.90;;;;;;5072800;28;20474;-70
2023/07/07 05:50:57;;;;;;;5.68;3.50;;;19.70;99.90;;;;;;5072188;28;20033;-70
2023/07/07 05:53:23;;;;;;;7.05;2.40;;;19.90;99.90;;;;;;5072497;28;20428;-70
2023/07/07 05:55:49;;;;;;;6.88;3.20;;;19.80;99.90;;;;;;5072532;28;20036;-70
2023/07/07 05:58:15;;;;;;;5.47;3.40;;;19.70;99.90;;;;;;5072725;28;20034;-70
2023/07/07 06:00:42;;;;;;;6.22;3.35;;;19.70;99.90;;;;;;5072463;28;20020;-70
2023/07/07 06:03:07;;;;;;;7.05;3.00;;;19.70;99.90;;;;;;5072163;28;20028;-70
2023/07/07 06:05:33;;;;;;;10.68;2.80;;;19.60;99.90;;;;;;5072836;28;20069;-70
2023/07/07 06:08:00;;;;;;;7.68;3.00;;;19.60;99.90;;;;;;5070474;28;20116;-70
2023/07/07 06:10:26;;;;;;;4.65;2.35;;;19.60;99.90;;;;;;5072343;28;20017;-70
2023/07/07 06:12:52;;;;;;;7.43;3.28;;;19.60;99.90;;;;;;5072379;28;20390;-70
2023/07/07 06:15:18;;;;;;;6.15;2.90;;;19.70;99.90;;;;;;5072256;28;20025;-70
2023/07/07 06:17:48;;;;;;;6.60;3.00;;;19.70;99.90;;;;;;5072080;28;20036;-70
2023/07/07 06:20:14;;;;;;;6.00;2.50;;;19.80;99.90;;;;;;5072143;28;20020;-71
2023/07/07 06:22:40;;;;;;;7.88;2.80;;;19.80;99.90;;;;;;5072058;28;20025;-71
2023/07/07 06:25:06;;;;;;;4.72;2.20;;;19.80;99.90;;;;;;5071646;28;20071;-71
2023/07/07 06:27:31;;;;;;;4.25;2.42;;;19.90;99.90;;;;;;5070907;28;20489;-71
2023/07/07 06:29:57;;;;;;;4.60;2.15;;;19.90;99.90;;;;;;5070378;28;20112;-71
2023/07/07 06:32:23;;;;;;;6.30;1.92;;;20.00;99.90;;;;;;5072232;28;20032;-71
2023/07/07 06:34:48;;;;;;;6.80;2.58;;;20.00;99.90;;;;;;5071720;28;20070;-71
2023/07/07 06:37:14;;;;;;;7.85;2.28;;;20.10;99.90;;;;;;5072010;28;20032;-70
2023/07/07 06:39:39;;;;;;;5.88;2.88;;;20.30;99.90;;;;;;5072814;28;20036;-70
2023/07/07 06:42:05;;;;;;;5.28;1.92;;;20.30;99.90;;;;;;5071432;28;20032;-71
2023/07/07 06:44:32;;;;;;;4.10;1.73;;;20.40;99.90;;;;;;5071518;28;20024;-71
2023/07/07 06:46:58;;;;;;;7.47;2.10;;;20.50;99.90;;;;;;5071366;28;20512;-71
2023/07/07 06:49:24;;;;;;;4.13;1.67;;;20.50;99.90;;;;;;5071887;28;20048;-72
2023/07/07 06:51:49;;;;;;;4.15;1.38;;;20.60;99.90;;;;;;5071286;28;20042;-70
2023/07/07 06:54:15;;;;;;;3.72;1.90;;;20.60;99.90;;;;;;5071395;28;20371;-70
2023/07/07 06:56:40;;;;;;;5.20;2.10;;;20.70;99.90;;;;;;5071501;28;20028;-70
2023/07/07 06:59:06;;;;;;;6.00;1.70;;;20.80;99.90;;;;;;5071092;28;20032;-71
2023/07/07 07:01:31;;;;;;;5.93;1.80;;;20.90;99.90;;;;;;5070189;28;20051;-70
2023/07/07 07:04:00;;;;;;;6.78;1.75;;;21.00;99.90;;;;;;5071087;28;20036;-71
2023/07/07 07:06:26;;;;;;;4.90;1.60;;;21.10;99.90;;;;;;5067521;28;20054;-71
2023/07/07 07:08:52;;;;;;;4.30;1.38;;;21.20;99.90;;;;;;5071048;28;20108;-71
2023/07/07 07:11:17;;;;;;;3.20;1.27;;;21.20;99.40;;;;;;5071154;28;20436;-71
2023/07/07 07:13:43;;;;;;;4.15;1.55;;;21.20;99.00;;;;;;5071625;28;20046;-71
2023/07/07 07:16:09;;;;;;;5.15;1.40;;;21.30;98.80;;;;;;5069427;28;20520;-71
2023/07/07 07:18:34;;;;;;;2.65;1.13;;;21.40;98.40;;;;;;5071385;28;20025;-71
2023/07/07 07:21:00;;;;;;;3.13;1.15;;;21.50;97.80;;;;;;5070843;28;20078;-71
2023/07/07 07:23:25;;;;;;;4.22;1.60;;;21.50;97.70;;;;;;5071043;28;20031;-71
2023/07/07 07:25:51;;;;;;;6.95;1.25;;;21.60;97.20;;;;;;5069272;28;20835;-71
2023/07/07 07:28:16;;;;;;;3.38;1.00;;;21.70;97.00;;;;;;5071145;28;20031;-71
2023/07/07 07:30:42;;;;;;;4.30;1.08;;;21.90;96.20;;;;;;5070941;28;20074;-71
2023/07/07 07:33:14;;;;;;;3.92;1.10;;;21.90;95.70;;;;;;5070752;28;20086;-71
2023/07/07 07:35:47;;;;;;;3.58;1.13;;;22.00;95.60;;;;;;5071333;28;20027;-71
2023/07/07 07:38:20;;;;;;;4.03;1.00;;;22.00;95.30;;;;;;5069212;28;20478;-70
2023/07/07 07:40:45;;;;;;;2.88;1.40;;;22.20;95.30;;;;;;5070960;28;20028;-70
2023/07/07 07:43:11;;;;;;;4.78;0.90;;;22.30;95.00;;;;;;5070542;28;20505;-70
2023/07/07 07:45:37;;;;;;;3.47;1.02;;;22.40;94.60;;;;;;5071052;28;20028;-70
2023/07/07 07:48:03;;;;;;;6.38;1.58;;;22.50;94.30;;;;;;5070460;28;20028;-70
2023/07/07 07:50:29;;;;;;;3.80;1.00;;;22.60;94.10;;;;;;5070982;28;20028;-70
2023/07/07 07:52:55;;;;;;;5.43;1.00;;;22.80;93.80;;;;;;5070380;28;20360;-70
2023/07/07 07:55:21;;;;;;;3.05;1.02;;;22.80;93.50;;;;;;5070687;28;20374;-70
2023/07/07 07:57:46;;;;;;;2.38;0.70;;;22.90;93.20;;;;;;5070962;28;20325;-70
2023/07/07 08:00:12;;;;;;;3.33;1.17;;;23.10;92.60;;;;;;5070319;28;20020;-70
2023/07/07 08:02:38;;;;;;;2.78;0.98;;;23.20;92.20;;;;;;5070868;28;20035;-70
2023/07/07 08:05:04;;;;;;;5.95;1.17;;;23.30;91.70;;;;;;5069530;28;20028;-70
2023/07/07 08:07:31;;;;;;;3.38;1.10;;;23.40;91.50;;;;;;5070793;28;20024;-72
2023/07/07 08:09:57;;;;;;;3.70;1.05;;;23.50;91.40;;;;;;5070455;28;20024;-70
2023/07/07 08:12:22;;;;;;;3.47;0.93;;;23.60;90.70;;;;;;5070520;28;20044;-70
2023/07/07 08:14:48;;;;;;;4.03;0.80;;;23.60;90.60;;;;;;5070709;28;20021;-70
2023/07/07 08:17:15;;;;;;;3.92;1.10;;;23.70;90.00;;;;;;5070505;28;20035;-70
2023/07/07 08:19:42;;;;;;;3.55;0.80;;;23.80;89.40;;;;;;5070477;28;20043;-70
2023/07/07 08:22:20;;;;;;;3.95;1.10;;;23.80;89.40;;;;;;5069985;28;20024;-70
2023/07/07 08:24:48;;;;;;;4.82;1.40;;;23.90;89.20;;;;;;5070611;28;20099;-70
2023/07/07 08:27:15;;;;;;;3.00;0.90;;;24.00;88.50;;;;;;5070567;28;20068;-70
2023/07/07 08:29:42;;;;;;;9.95;1.45;;;24.00;88.20;;;;;;5070432;28;20032;-70
2023/07/07 08:32:13;;;;;;;2.92;1.02;;;24.00;87.50;;;;;;5069680;28;20080;-71
2023/07/07 08:34:39;;;;;;;2.67;0.83;;;24.10;87.30;;;;;;5070340;28;20032;-70
2023/07/07 08:37:05;;;;;;;2.70;1.10;;;24.20;86.70;;;;;;5070047;28;20025;-70
2023/07/07 08:39:33;;;;;;;2.08;0.65;;;24.20;85.50;;;;;;5072677;28;20099;-70
2023/07/07 08:42:05;;;;;;;2.70;0.90;;;24.30;85.50;;;;;;5073808;28;20028;-71
2023/07/07 08:44:34;;;;;;;3.15;0.80;;;24.30;85.50;;;;;;5072711;28;20052;-70
2023/07/07 08:47:02;;;;;;;2.88;1.02;;;24.50;85.50;;;;;;5073498;28;20119;-70
2023/07/07 08:50:01;;;;;;;2.03;0.70;;;24.70;86.70;;;;;;5074108;28;20021;-70
2023/07/07 08:53:11;;;;;;;4.45;1.50;;;24.80;84.50;;;;;;5073393;28;20045;-70
2023/07/07 08:56:15;;;;;;;4.43;1.02;;;24.90;84.30;;;;;;5073805;28;20021;-70
2023/07/07 08:59:03;;;;;;;2.78;1.10;;;25.00;84.10;;;;;;5074009;28;20020;-71
2023/07/07 09:01:40;;;;;;;2.55;0.77;;;25.10;82.90;;;;;;5073973;28;20029;-70
2023/07/07 09:04:30;;;;;;;2.70;0.80;;;25.20;82.60;;;;;;5071684;28;20028;-70
2023/07/07 09:07:33;;;;;;;2.33;0.60;;;25.20;81.40;;;;;;5063511;28;20021;-71
2023/07/07 09:10:43;;;;;;;2.88;0.77;;;25.30;80.20;;;;;;5072861;28;20031;-71
2023/07/07 09:13:18;;;;;;;4.75;0.80;;;25.30;78.70;;;;;;5057455;28;20045;-71
2023/07/07 09:15:58;;;;;;;2.95;0.70;;;25.40;77.50;;;;;;5075376;28;20021;-70
2023/07/07 09:18:32;;;;;;;2.60;0.63;;;25.40;77.20;;;;;;5073697;28;20024;-70
2023/07/07 09:21:03;;;;;;;2.40;0.68;;;25.50;76.10;;;;;;5053110;28;20060;-70
2023/07/07 09:23:37;;;;;;;2.60;0.88;;;25.60;77.00;;;;;;5053505;28;20422;-71
2023/07/07 09:26:22;;;;;;;2.10;0.57;;;25.70;76.30;;;;;;5052702;28;20049;-70
2023/07/07 09:28:52;;;;;;;1.83;0.60;;;25.80;74.90;;;;;;5072634;28;20048;-70
2023/07/07 09:31:31;;;;;;;2.63;0.88;;;25.80;74.40;;;;;;5071948;28;20063;-70
2023/07/07 09:33:59;;;;;;;2.05;0.70;;;25.90;72.60;;;;;;5073048;28;20103;-70
2023/07/07 09:36:36;;;;;;;1.85;0.60;;;25.90;72.40;;;;;;5073392;28;20063;-70
2023/07/07 09:39:42;;;;;;;3.28;0.75;;;26.00;71.40;;;;;;5072524;28;20021;-70
2023/07/07 09:42:20;;;;;;;3.38;0.60;;;26.10;68.70;;;;;;5072622;28;20020;-71
2023/07/07 09:45:12;;;;;;;2.75;1.15;;;26.10;67.40;;;;;;5072937;28;20110;-70
2023/07/07 09:48:20;;;;;;;2.85;0.70;;;26.20;68.00;;;;;;5072830;28;20048;-70
2023/07/07 09:51:05;;;;;;;3.55;0.77;;;26.20;67.30;;;;;;5069383;28;20037;-70
2023/07/07 09:53:37;;;;;;;4.03;1.00;;;26.30;68.50;;;;;;5072762;28;20066;-70
2023/07/07 09:56:04;;;;;;;3.67;0.60;;;26.40;67.50;;;;;;5071895;28;20028;-70
2023/07/07 09:58:43;;;;;;;1.90;0.60;;;26.50;66.70;;;;;;5072830;28;20510;-70
2023/07/07 10:01:09;;;;;;;2.45;0.73;;;26.50;68.00;;;;;;5072140;28;20417;-71
2023/07/07 10:03:40;;;;;;;2.38;0.70;;;26.60;68.10;;;;;;5072896;28;20027;-70
2023/07/07 10:06:24;;;;;;;2.40;0.77;;;26.70;68.00;;;;;;5072753;28;20264;-70
2023/07/07 10:08:49;;;;;;;2.25;0.70;;;26.80;67.60;;;;;;5071983;28;20052;-70
2023/07/07 10:11:18;;;;;;;2.55;0.65;;;26.80;66.40;;;;;;5072362;28;20461;-71
2023/07/07 10:13:43;;;;;;;5.60;1.00;;;26.90;66.50;;;;;;5072488;28;20056;-71
2023/07/07 10:16:28;;;;;;;2.25;0.60;;;27.00;66.60;;;;;;5070798;28;20052;-70
2023/07/07 10:18:55;;;;;;;2.00;0.60;;;27.10;66.00;;;;;;5070581;28;20021;-71
2023/07/07 10:21:21;;;;;;;2.10;0.68;;;27.10;66.50;;;;;;5072409;28;20490;-71
2023/07/07 10:23:47;;;;;;;2.28;0.80;;;27.10;65.90;;;;;;5072241;28;20062;-71
2023/07/07 10:26:12;;;;;;;2.08;0.70;;;27.10;63.80;;;;;;5071545;28;20055;-70
2023/07/07 10:28:38;;;;;;;3.17;0.80;;;27.00;64.00;;;;;;5072013;28;20846;-70
2023/07/07 10:31:04;;;;;;;1.85;0.60;;;27.10;65.80;;;;;;5071689;28;20031;-70
2023/07/07 10:33:29;;;;;;;3.00;0.73;;;27.20;65.20;;;;;;5072189;28;20043;-71
2023/07/07 10:35:55;;;;;;;2.28;0.70;;;27.30;64.80;;;;;;5071340;28;20410;-71
2023/07/07 10:38:23;;;;;;;4.30;0.70;;;27.30;62.90;;;;;;5072159;28;20032;-70
2023/07/07 10:40:48;;;;;;;8.27;1.63;;;27.40;62.40;;;;;;5071276;28;20028;-71
2023/07/07 10:43:16;;;;;;;3.35;0.80;;;27.40;61.60;;;;;;5071917;28;20128;-71
2023/07/07 10:45:47;;;;;;;2.45;0.60;;;27.40;61.80;;;;;;5071631;28;20058;-71
2023/07/07 10:48:14;;;;;;;5.50;0.93;;;27.40;61.10;;;;;;5071343;28;20102;-71
2023/07/07 10:51:07;;;;;;;2.53;0.70;;;27.40;61.60;;;;;;5071649;28;20028;-71
2023/07/07 10:53:48;;;;;;;3.40;0.73;;;27.60;60.00;;;;;;5071459;28;20033;-71
2023/07/07 10:56:34;;;;;;;4.15;0.90;;;27.60;60.40;;;;;;5071571;28;20066;-71
2023/07/07 10:59:00;;;;;;;3.75;1.02;;;27.70;61.00;;;;;;5069907;28;20021;-71
2023/07/07 11:02:01;;;;;;;2.25;1.08;;;27.70;60.10;;;;;;5050859;28;20021;-71
2023/07/07 11:04:44;;;;;;;2.75;0.80;;;27.80;59.20;;;;;;5044527;28;20048;-71
2023/07/07 11:07:21;;;;;;;1.75;0.60;;;27.90;58.50;;;;;;5070598;28;20504;-71
2023/07/07 11:10:21;;;;;;;2.28;0.60;;;27.90;59.70;;;;;;5071130;28;20040;-71
2023/07/07 11:13:08;;;;;;;2.10;0.70;;;27.90;55.60;;;;;;5071128;28;20033;-71
2023/07/07 11:15:41;;;;;;;2.08;0.80;;;27.90;56.00;;;;;;5070983;28;20028;-71
2023/07/07 11:18:40;;;;;;;2.42;0.70;;;27.90;56.20;;;;;;5070919;28;20112;-70
2023/07/07 11:21:41;;;;;;;2.40;0.70;;;27.80;55.50;;;;;;5050881;28;20021;-70
2023/07/07 11:24:32;;;;;;;2.45;1.10;;;27.90;56.10;;;;;;5056231;28;20039;-71
2023/07/07 11:27:26;;;;;;;2.00;1.08;;;27.90;54.80;;;;;;5070625;28;20494;-71
2023/07/07 11:30:10;;;;;;;2.55;1.30;;;27.90;54.10;;;;;;5070677;28;20069;-71
2023/07/07 11:32:53;;;;;;;4.47;1.17;;;28.10;53.50;;;;;;5071242;28;20040;-71
2023/07/07 11:35:58;;;;;;;4.45;1.23;;;28.10;51.60;;;;;;5071260;28;20075;-71
2023/07/07 11:39:07;;;;;;;3.47;1.60;;;28.10;52.40;;;;;;5068723;28;20103;-71
2023/07/07 11:42:05;;;;;;;3.60;1.27;;;28.20;52.30;;;;;;5070885;28;20028;-71
2023/07/07 11:44:59;;;;;;;4.25;1.20;;;28.10;51.90;;;;;;5070822;28;20028;-71
2023/07/07 11:47:38;;;;;;;4.38;1.45;;;28.30;52.80;;;;;;5070970;28;20485;-71
2023/07/07 11:50:09;;;;;;;2.63;1.25;;;28.40;52.70;;;;;;5070563;28;20067;-71
2023/07/07 11:52:54;;;;;;;3.05;1.00;;;28.50;53.10;;;;;;5071729;28;20024;-71
2023/07/07 11:55:25;;;;;;;2.58;1.17;;;28.50;52.10;;;;;;5070738;28;20056;-71
2023/07/07 11:58:17;;;;;;;3.05;1.05;;;28.40;53.20;;;;;;5070129;28;20462;-71
2023/07/07 12:00:56;;;;;;;3.50;1.25;;;28.50;53.10;;;;;;5070774;28;20028;-71
2023/07/07 12:03:33;;;;;;;3.88;1.00;;;28.60;53.80;;;;;;5070692;28;20020;-71
2023/07/07 12:06:17;;;;;;;2.08;0.95;;;28.70;53.10;;;;;;5069947;28;20074;-71
2023/07/07 12:09:01;;;;;;;4.72;1.00;;;28.50;52.30;;;;;;5070670;28;20158;-71
2023/07/07 12:11:33;;;;;;;3.92;1.05;;;28.50;53.30;;;;;;5070169;28;20043;-71
2023/07/07 12:14:08;;;;;;;3.30;0.93;;;28.60;53.30;;;;;;5073392;28;20021;-71
2023/07/07 12:16:38;;;;;;;6.55;2.22;;;28.70;54.50;;;;;;5074858;28;20105;-71
2023/07/07 12:19:31;;;;;;;2.65;0.98;;;29.00;53.90;;;;;;5074052;28;20112;-71
2023/07/07 12:21:59;;;;;;;3.95;1.33;;;29.00;53.70;;;;;;5072860;28;20024;-71
2023/07/07 12:24:38;;;;;;;2.05;0.70;;;29.10;52.90;;;;;;5074539;28;20525;-71
2023/07/07 12:27:30;;;;;;;2.83;0.85;;;29.20;52.60;;;;;;5054514;28;20049;-71
2023/07/07 12:29:57;;;;;;;2.60;0.80;;;29.30;51.60;;;;;;5073805;28;20383;-71
2023/07/07 12:32:22;;;;;;;4.00;0.93;;;29.20;52.60;;;;;;5074440;28;20067;-71
2023/07/07 12:35:01;;;;;;;1.98;0.70;;;29.30;52.30;;;;;;5073793;28;20032;-71
2023/07/07 12:37:27;;;;;;;3.08;1.10;;;29.40;51.30;;;;;;5072647;28;20498;-71
2023/07/07 12:40:15;;;;;;;3.40;0.88;;;29.40;50.90;;;;;;5073995;28;20063;-71
2023/07/07 12:42:42;;;;;;;1.95;0.82;;;29.50;52.00;;;;;;5074048;28;20036;-70
2023/07/07 12:45:37;;;;;;;4.00;1.10;;;29.60;50.40;;;;;;5073530;28;20039;-71
2023/07/07 12:48:06;;;;;;;3.53;0.80;;;29.60;51.10;;;;;;5073434;28;20063;-71
2023/07/07 12:50:40;;;;;;;2.45;0.80;;;29.60;51.10;;;;;;5074084;28;20118;-71
2023/07/07 12:53:20;;;;;;;2.28;1.10;;;29.60;51.50;;;;;;5073534;28;20051;-71
2023/07/07 12:56:07;;;;;;;2.50;0.90;;;29.60;52.90;;;;;;5074097;28;20098;-71
2023/07/07 12:58:55;;;;;;;5.75;1.05;;;29.50;51.20;;;;;;5054553;28;20080;-71
2023/07/07 13:01:38;;;;;;;4.40;0.63;;;29.40;52.00;;;;;;5054216;28;20386;-71
2023/07/07 13:04:13;;;;;;;3.45;0.90;;;29.50;51.40;;;;;;5053222;28;20033;-71
2023/07/07 13:07:01;;;;;;;2.60;0.50;;;29.60;51.20;;;;;;5071416;28;20033;-71